sensor_id;sensor_type;location;lat;lon;timestamp;P1;durP1;ratioP1;P2;durP2;ratioP2
22768;SDS011;13001;51.968;5.918;2022-12-13T00:01:34;346.73;;;323.57;;
22768;SDS011;13001;51.968;5.918;2022-12-13T00:04:03;345.55;;;322.23;;
22768;SDS011;13001;51.968;5.918;2022-12-13T00:06:32;344.70;;;321.85;;
22768;SDS011;13001;51.968;5.918;2022-12-13T00:09:02;341.70;;;318.15;;
22768;SDS011;13001;51.968;5.918;2022-12-13T00:11:30;345.10;;;321.68;;
22768;SDS011;13001;51.968;5.918;2022-12-13T00:13:58;339.68;;;316.50;;
22768;SDS011;13001;51.968;5.918;2022-12-13T00:16:26;348.05;;;324.27;;
22768;SDS011;13001;51.968;5.918;2022-12-13T00:18:56;342.10;;;319.17;;
22768;SDS011;13001;51.968;5.918;2022-12-13T00:21:26;353.60;;;329.07;;
22768;SDS011;13001;51.968;5.918;2022-12-13T00:23:56;345.02;;;321.62;;
22768;SDS011;13001;51.968;5.918;2022-12-13T00:26:27;354.20;;;330.15;;
22768;SDS011;13001;51.968;5.918;2022-12-13T00:28:57;355.30;;;331.38;;
22768;SDS011;13001;51.968;5.918;2022-12-13T00:31:25;348.68;;;325.68;;
22768;SDS011;13001;51.968;5.918;2022-12-13T00:33:55;369.52;;;344.70;;
22768;SDS011;13001;51.968;5.918;2022-12-13T00:36:23;365.27;;;340.43;;
22768;SDS011;13001;51.968;5.918;2022-12-13T00:38:50;368.90;;;343.42;;
22768;SDS011;13001;51.968;5.918;2022-12-13T00:41:19;363.55;;;338.18;;
22768;SDS011;13001;51.968;5.918;2022-12-13T00:43:47;371.23;;;346.10;;
22768;SDS011;13001;51.968;5.918;2022-12-13T00:46:16;368.17;;;343.13;;
22768;SDS011;13001;51.968;5.918;2022-12-13T00:48:48;365.95;;;340.70;;
22768;SDS011;13001;51.968;5.918;2022-12-13T00:51:17;367.00;;;341.33;;
22768;SDS011;13001;51.968;5.918;2022-12-13T00:53:46;383.70;;;356.90;;
22768;SDS011;13001;51.968;5.918;2022-12-13T00:56:18;329.38;;;306.07;;
22768;SDS011;13001;51.968;5.918;2022-12-13T00:58:49;337.52;;;312.70;;
22768;SDS011;13001;51.968;5.918;2022-12-13T01:01:18;327.57;;;303.27;;
22768;SDS011;13001;51.968;5.918;2022-12-13T01:03:47;344.82;;;319.93;;
22768;SDS011;13001;51.968;5.918;2022-12-13T01:06:19;339.77;;;315.12;;
22768;SDS011;13001;51.968;5.918;2022-12-13T01:08:48;342.48;;;317.70;;
22768;SDS011;13001;51.968;5.918;2022-12-13T01:11:16;348.40;;;323.67;;
22768;SDS011;13001;51.968;5.918;2022-12-13T01:13:44;355.35;;;330.95;;
22768;SDS011;13001;51.968;5.918;2022-12-13T01:16:12;358.70;;;334.07;;
22768;SDS011;13001;51.968;5.918;2022-12-13T01:18:40;362.20;;;337.05;;
22768;SDS011;13001;51.968;5.918;2022-12-13T01:21:12;378.52;;;352.02;;
22768;SDS011;13001;51.968;5.918;2022-12-13T01:23:42;350.65;;;326.60;;
22768;SDS011;13001;51.968;5.918;2022-12-13T01:26:12;351.15;;;326.92;;
22768;SDS011;13001;51.968;5.918;2022-12-13T01:28:41;356.05;;;331.45;;
22768;SDS011;13001;51.968;5.918;2022-12-13T01:31:10;354.73;;;329.50;;
22768;SDS011;13001;51.968;5.918;2022-12-13T01:33:40;307.10;;;284.70;;
22768;SDS011;13001;51.968;5.918;2022-12-13T01:36:09;312.70;;;290.07;;
22768;SDS011;13001;51.968;5.918;2022-12-13T01:41:26;311.95;;;289.48;;
22768;SDS011;13001;51.968;5.918;2022-12-13T01:43:56;320.42;;;297.57;;
22768;SDS011;13001;51.968;5.918;2022-12-13T01:46:33;352.35;;;328.07;;
22768;SDS011;13001;51.968;5.918;2022-12-13T01:48:59;337.70;;;314.20;;
22768;SDS011;13001;51.968;5.918;2022-12-13T01:51:31;331.95;;;308.17;;
22768;SDS011;13001;51.968;5.918;2022-12-13T01:54:05;354.60;;;330.23;;
22768;SDS011;13001;51.968;5.918;2022-12-13T01:56:37;325.38;;;302.52;;
22768;SDS011;13001;51.968;5.918;2022-12-13T01:59:06;336.70;;;313.02;;
22768;SDS011;13001;51.968;5.918;2022-12-13T02:01:36;346.25;;;322.12;;
22768;SDS011;13001;51.968;5.918;2022-12-13T02:04:05;325.48;;;302.77;;
22768;SDS011;13001;51.968;5.918;2022-12-13T02:06:35;333.75;;;310.60;;
22768;SDS011;13001;51.968;5.918;2022-12-13T02:09:05;308.35;;;285.73;;
22768;SDS011;13001;51.968;5.918;2022-12-13T02:11:34;304.63;;;283.25;;
22768;SDS011;13001;51.968;5.918;2022-12-13T02:14:03;334.62;;;310.75;;
22768;SDS011;13001;51.968;5.918;2022-12-13T02:19:43;324.58;;;303.02;;
22768;SDS011;13001;51.968;5.918;2022-12-13T02:22:23;331.25;;;308.75;;
22768;SDS011;13001;51.968;5.918;2022-12-13T02:27:50;320.67;;;299.23;;
22768;SDS011;13001;51.968;5.918;2022-12-13T02:38:32;305.57;;;285.00;;
22768;SDS011;13001;51.968;5.918;2022-12-13T02:41:12;299.60;;;279.25;;
22768;SDS011;13001;51.968;5.918;2022-12-13T02:44:00;304.82;;;284.10;;
22768;SDS011;13001;51.968;5.918;2022-12-13T02:46:32;303.90;;;283.75;;
22768;SDS011;13001;51.968;5.918;2022-12-13T02:49:02;281.60;;;262.38;;
22768;SDS011;13001;51.968;5.918;2022-12-13T02:51:32;271.95;;;253.30;;
22768;SDS011;13001;51.968;5.918;2022-12-13T02:54:02;278.60;;;259.83;;
22768;SDS011;13001;51.968;5.918;2022-12-13T02:56:31;281.73;;;262.87;;
22768;SDS011;13001;51.968;5.918;2022-12-13T02:58:59;288.80;;;269.48;;
22768;SDS011;13001;51.968;5.918;2022-12-13T03:07:38;269.27;;;250.75;;
22768;SDS011;13001;51.968;5.918;2022-12-13T03:10:28;272.98;;;254.70;;
22768;SDS011;13001;51.968;5.918;2022-12-13T03:12:56;266.88;;;248.78;;
22768;SDS011;13001;51.968;5.918;2022-12-13T03:15:57;259.62;;;242.25;;
22768;SDS011;13001;51.968;5.918;2022-12-13T03:18:21;269.65;;;251.37;;
22768;SDS011;13001;51.968;5.918;2022-12-13T03:20:52;271.95;;;253.77;;
22768;SDS011;13001;51.968;5.918;2022-12-13T03:23:24;271.48;;;253.67;;
22768;SDS011;13001;51.968;5.918;2022-12-13T03:25:53;275.22;;;256.77;;
22768;SDS011;13001;51.968;5.918;2022-12-13T03:28:23;274.50;;;255.87;;
22768;SDS011;13001;51.968;5.918;2022-12-13T03:30:51;269.80;;;251.00;;
22768;SDS011;13001;51.968;5.918;2022-12-13T03:33:19;279.27;;;260.35;;
22768;SDS011;13001;51.968;5.918;2022-12-13T03:35:47;288.93;;;269.75;;
22768;SDS011;13001;51.968;5.918;2022-12-13T03:38:16;280.90;;;262.30;;
22768;SDS011;13001;51.968;5.918;2022-12-13T03:40:44;271.00;;;252.72;;
22768;SDS011;13001;51.968;5.918;2022-12-13T03:43:12;278.55;;;259.75;;
22768;SDS011;13001;51.968;5.918;2022-12-13T03:45:40;283.60;;;264.48;;
22768;SDS011;13001;51.968;5.918;2022-12-13T03:48:07;278.25;;;259.55;;
22768;SDS011;13001;51.968;5.918;2022-12-13T03:50:35;272.25;;;254.07;;
22768;SDS011;13001;51.968;5.918;2022-12-13T03:53:03;278.15;;;259.43;;
22768;SDS011;13001;51.968;5.918;2022-12-13T03:55:30;271.20;;;253.58;;
22768;SDS011;13001;51.968;5.918;2022-12-13T03:57:58;271.80;;;253.65;;
22768;SDS011;13001;51.968;5.918;2022-12-13T04:00:25;279.07;;;260.73;;
22768;SDS011;13001;51.968;5.918;2022-12-13T04:02:53;297.13;;;278.00;;
22768;SDS011;13001;51.968;5.918;2022-12-13T04:05:20;282.48;;;264.08;;
22768;SDS011;13001;51.968;5.918;2022-12-13T04:07:48;282.62;;;264.25;;
22768;SDS011;13001;51.968;5.918;2022-12-13T04:10:15;288.60;;;270.33;;
22768;SDS011;13001;51.968;5.918;2022-12-13T04:12:43;285.55;;;266.98;;
22768;SDS011;13001;51.968;5.918;2022-12-13T04:15:29;275.77;;;257.27;;
22768;SDS011;13001;51.968;5.918;2022-12-13T04:17:56;251.22;;;234.12;;
22768;SDS011;13001;51.968;5.918;2022-12-13T04:20:24;255.00;;;238.00;;
22768;SDS011;13001;51.968;5.918;2022-12-13T04:22:52;297.25;;;277.22;;
22768;SDS011;13001;51.968;5.918;2022-12-13T04:25:20;304.35;;;284.23;;
22768;SDS011;13001;51.968;5.918;2022-12-13T04:27:48;300.03;;;279.73;;
22768;SDS011;13001;51.968;5.918;2022-12-13T04:30:16;301.05;;;281.30;;
22768;SDS011;13001;51.968;5.918;2022-12-13T04:32:43;291.63;;;272.47;;
22768;SDS011;13001;51.968;5.918;2022-12-13T04:35:11;285.17;;;265.98;;
22768;SDS011;13001;51.968;5.918;2022-12-13T04:37:39;259.07;;;241.93;;
22768;SDS011;13001;51.968;5.918;2022-12-13T04:40:07;266.70;;;248.90;;
22768;SDS011;13001;51.968;5.918;2022-12-13T04:42:35;260.02;;;242.57;;
22768;SDS011;13001;51.968;5.918;2022-12-13T04:45:03;250.43;;;233.28;;
22768;SDS011;13001;51.968;5.918;2022-12-13T04:47:31;260.52;;;242.97;;
22768;SDS011;13001;51.968;5.918;2022-12-13T04:49:58;260.65;;;243.02;;
22768;SDS011;13001;51.968;5.918;2022-12-13T04:52:26;268.82;;;251.20;;
22768;SDS011;13001;51.968;5.918;2022-12-13T04:54:53;267.40;;;249.70;;
22768;SDS011;13001;51.968;5.918;2022-12-13T04:57:21;268.12;;;249.98;;
22768;SDS011;13001;51.968;5.918;2022-12-13T04:59:49;258.73;;;241.53;;
22768;SDS011;13001;51.968;5.918;2022-12-13T05:02:16;251.82;;;234.77;;
22768;SDS011;13001;51.968;5.918;2022-12-13T05:04:44;242.28;;;225.90;;
22768;SDS011;13001;51.968;5.918;2022-12-13T05:07:12;246.97;;;230.10;;
22768;SDS011;13001;51.968;5.918;2022-12-13T05:09:41;254.38;;;237.27;;
22768;SDS011;13001;51.968;5.918;2022-12-13T05:12:09;264.57;;;246.47;;
22768;SDS011;13001;51.968;5.918;2022-12-13T05:14:36;256.33;;;238.93;;
22768;SDS011;13001;51.968;5.918;2022-12-13T05:17:04;268.90;;;250.85;;
22768;SDS011;13001;51.968;5.918;2022-12-13T05:19:32;259.23;;;241.60;;
22768;SDS011;13001;51.968;5.918;2022-12-13T05:21:59;263.40;;;245.77;;
22768;SDS011;13001;51.968;5.918;2022-12-13T05:24:27;255.30;;;238.05;;
22768;SDS011;13001;51.968;5.918;2022-12-13T05:26:56;266.10;;;248.60;;
22768;SDS011;13001;51.968;5.918;2022-12-13T05:29:24;264.32;;;246.97;;
22768;SDS011;13001;51.968;5.918;2022-12-13T05:31:53;280.37;;;261.65;;
22768;SDS011;13001;51.968;5.918;2022-12-13T05:34:22;272.95;;;254.95;;
22768;SDS011;13001;51.968;5.918;2022-12-13T05:36:50;270.07;;;252.47;;
22768;SDS011;13001;51.968;5.918;2022-12-13T05:39:18;277.50;;;259.07;;
22768;SDS011;13001;51.968;5.918;2022-12-13T05:41:45;271.90;;;254.03;;
22768;SDS011;13001;51.968;5.918;2022-12-13T05:44:13;271.15;;;253.55;;
22768;SDS011;13001;51.968;5.918;2022-12-13T05:46:41;280.73;;;262.38;;
22768;SDS011;13001;51.968;5.918;2022-12-13T05:49:08;280.20;;;262.05;;
22768;SDS011;13001;51.968;5.918;2022-12-13T05:51:36;275.43;;;257.37;;
22768;SDS011;13001;51.968;5.918;2022-12-13T05:54:03;274.90;;;256.43;;
22768;SDS011;13001;51.968;5.918;2022-12-13T05:56:31;273.63;;;255.47;;
22768;SDS011;13001;51.968;5.918;2022-12-13T05:58:59;270.05;;;252.10;;
22768;SDS011;13001;51.968;5.918;2022-12-13T06:01:27;273.05;;;255.30;;
22768;SDS011;13001;51.968;5.918;2022-12-13T06:03:54;271.98;;;254.05;;
22768;SDS011;13001;51.968;5.918;2022-12-13T06:06:22;278.70;;;260.25;;
22768;SDS011;13001;51.968;5.918;2022-12-13T06:08:50;276.80;;;258.73;;
22768;SDS011;13001;51.968;5.918;2022-12-13T06:11:17;277.30;;;258.82;;
22768;SDS011;13001;51.968;5.918;2022-12-13T06:13:48;279.13;;;260.45;;
22768;SDS011;13001;51.968;5.918;2022-12-13T06:16:15;271.45;;;253.25;;
22768;SDS011;13001;51.968;5.918;2022-12-13T06:18:43;284.55;;;266.15;;
22768;SDS011;13001;51.968;5.918;2022-12-13T06:21:10;286.37;;;267.62;;
22768;SDS011;13001;51.968;5.918;2022-12-13T06:23:38;285.53;;;266.63;;
22768;SDS011;13001;51.968;5.918;2022-12-13T06:26:06;281.10;;;262.35;;
22768;SDS011;13001;51.968;5.918;2022-12-13T06:28:34;280.32;;;261.65;;
22768;SDS011;13001;51.968;5.918;2022-12-13T06:31:02;275.95;;;257.73;;
22768;SDS011;13001;51.968;5.918;2022-12-13T06:33:30;281.70;;;262.88;;
22768;SDS011;13001;51.968;5.918;2022-12-13T06:36:00;272.70;;;254.75;;
22768;SDS011;13001;51.968;5.918;2022-12-13T06:38:28;288.18;;;269.43;;
22768;SDS011;13001;51.968;5.918;2022-12-13T06:41:06;292.05;;;273.15;;
22768;SDS011;13001;51.968;5.918;2022-12-13T06:43:35;290.50;;;271.43;;
22768;SDS011;13001;51.968;5.918;2022-12-13T06:46:04;286.65;;;268.00;;
22768;SDS011;13001;51.968;5.918;2022-12-13T06:48:31;284.43;;;265.20;;
22768;SDS011;13001;51.968;5.918;2022-12-13T06:51:00;282.02;;;263.07;;
22768;SDS011;13001;51.968;5.918;2022-12-13T06:53:29;283.85;;;264.93;;
22768;SDS011;13001;51.968;5.918;2022-12-13T06:56:01;284.13;;;265.35;;
22768;SDS011;13001;51.968;5.918;2022-12-13T06:58:30;280.87;;;261.90;;
22768;SDS011;13001;51.968;5.918;2022-12-13T07:01:00;288.57;;;269.62;;
22768;SDS011;13001;51.968;5.918;2022-12-13T07:03:35;283.00;;;264.57;;
22768;SDS011;13001;51.968;5.918;2022-12-13T07:06:03;285.48;;;266.42;;
22768;SDS011;13001;51.968;5.918;2022-12-13T07:08:33;289.85;;;270.50;;
22768;SDS011;13001;51.968;5.918;2022-12-13T07:11:01;288.98;;;269.15;;
22768;SDS011;13001;51.968;5.918;2022-12-13T07:13:29;284.70;;;265.80;;
22768;SDS011;13001;51.968;5.918;2022-12-13T07:15:59;288.02;;;268.42;;
22768;SDS011;13001;51.968;5.918;2022-12-13T07:18:26;285.15;;;266.30;;
22768;SDS011;13001;51.968;5.918;2022-12-13T07:20:54;290.80;;;271.02;;
22768;SDS011;13001;51.968;5.918;2022-12-13T07:23:21;284.62;;;265.02;;
22768;SDS011;13001;51.968;5.918;2022-12-13T07:25:50;286.12;;;266.93;;
22768;SDS011;13001;51.968;5.918;2022-12-13T07:28:19;279.23;;;260.65;;
22768;SDS011;13001;51.968;5.918;2022-12-13T07:30:47;283.93;;;265.13;;
22768;SDS011;13001;51.968;5.918;2022-12-13T07:33:15;284.87;;;266.00;;
22768;SDS011;13001;51.968;5.918;2022-12-13T07:35:43;289.20;;;269.65;;
22768;SDS011;13001;51.968;5.918;2022-12-13T07:38:10;290.45;;;270.97;;
22768;SDS011;13001;51.968;5.918;2022-12-13T07:40:38;287.25;;;268.00;;
22768;SDS011;13001;51.968;5.918;2022-12-13T07:43:06;297.02;;;277.22;;
22768;SDS011;13001;51.968;5.918;2022-12-13T07:45:36;297.33;;;277.15;;
22768;SDS011;13001;51.968;5.918;2022-12-13T07:48:04;305.67;;;285.27;;
22768;SDS011;13001;51.968;5.918;2022-12-13T07:50:33;295.88;;;276.25;;
22768;SDS011;13001;51.968;5.918;2022-12-13T07:53:02;306.43;;;286.07;;
22768;SDS011;13001;51.968;5.918;2022-12-13T07:55:31;303.32;;;282.98;;
22768;SDS011;13001;51.968;5.918;2022-12-13T07:58:06;329.95;;;308.15;;
22768;SDS011;13001;51.968;5.918;2022-12-13T08:00:36;325.20;;;303.43;;
22768;SDS011;13001;51.968;5.918;2022-12-13T08:03:05;352.30;;;329.13;;
22768;SDS011;13001;51.968;5.918;2022-12-13T08:05:32;301.02;;;280.98;;
22768;SDS011;13001;51.968;5.918;2022-12-13T08:08:02;301.40;;;281.02;;
22768;SDS011;13001;51.968;5.918;2022-12-13T08:10:31;308.27;;;288.15;;
22768;SDS011;13001;51.968;5.918;2022-12-13T08:13:00;319.75;;;298.82;;
22768;SDS011;13001;51.968;5.918;2022-12-13T08:15:28;363.30;;;339.50;;
22768;SDS011;13001;51.968;5.918;2022-12-13T08:17:56;243.00;;;224.82;;
22768;SDS011;13001;51.968;5.918;2022-12-13T08:20:25;294.48;;;274.52;;
22768;SDS011;13001;51.968;5.918;2022-12-13T08:22:58;293.23;;;272.43;;
22768;SDS011;13001;51.968;5.918;2022-12-13T08:25:23;362.17;;;337.65;;
22768;SDS011;13001;51.968;5.918;2022-12-13T08:27:51;125.47;;;115.73;;
22768;SDS011;13001;51.968;5.918;2022-12-13T08:30:19;446.72;;;416.68;;
22768;SDS011;13001;51.968;5.918;2022-12-13T08:32:48;261.63;;;243.57;;
22768;SDS011;13001;51.968;5.918;2022-12-13T08:35:16;312.03;;;290.33;;
22768;SDS011;13001;51.968;5.918;2022-12-13T08:37:43;483.07;;;447.87;;
22768;SDS011;13001;51.968;5.918;2022-12-13T08:40:11;547.23;;;506.53;;
22768;SDS011;13001;51.968;5.918;2022-12-13T08:42:38;585.20;;;541.13;;
22768;SDS011;13001;51.968;5.918;2022-12-13T08:45:06;612.47;;;566.10;;
22768;SDS011;13001;51.968;5.918;2022-12-13T08:47:35;546.43;;;505.07;;
22768;SDS011;13001;51.968;5.918;2022-12-13T08:50:03;654.77;;;604.13;;
22768;SDS011;13001;51.968;5.918;2022-12-13T08:52:31;601.97;;;554.97;;
22768;SDS011;13001;51.968;5.918;2022-12-13T08:55:00;558.87;;;514.57;;
22768;SDS011;13001;51.968;5.918;2022-12-13T08:57:28;558.40;;;515.40;;
22768;SDS011;13001;51.968;5.918;2022-12-13T08:59:55;627.00;;;579.80;;
22768;SDS011;13001;51.968;5.918;2022-12-13T09:02:23;627.40;;;581.10;;
22768;SDS011;13001;51.968;5.918;2022-12-13T09:04:50;659.43;;;611.20;;
22768;SDS011;13001;51.968;5.918;2022-12-13T09:07:18;683.60;;;631.93;;
22768;SDS011;13001;51.968;5.918;2022-12-13T09:09:45;684.63;;;633.47;;
22768;SDS011;13001;51.968;5.918;2022-12-13T09:12:13;672.77;;;623.20;;
22768;SDS011;13001;51.968;5.918;2022-12-13T09:14:40;661.10;;;612.23;;
22768;SDS011;13001;51.968;5.918;2022-12-13T09:17:08;664.40;;;613.93;;
22768;SDS011;13001;51.968;5.918;2022-12-13T09:19:35;559.73;;;516.27;;
22768;SDS011;13001;51.968;5.918;2022-12-13T09:24:30;314.63;;;292.03;;
22768;SDS011;13001;51.968;5.918;2022-12-13T09:26:58;151.82;;;141.05;;
22768;SDS011;13001;51.968;5.918;2022-12-13T09:29:26;156.30;;;144.30;;
22768;SDS011;13001;51.968;5.918;2022-12-13T09:31:53;119.50;;;110.37;;
22768;SDS011;13001;51.968;5.918;2022-12-13T09:34:21;109.50;;;101.27;;
22768;SDS011;13001;51.968;5.918;2022-12-13T09:36:48;124.07;;;115.40;;
22768;SDS011;13001;51.968;5.918;2022-12-13T09:39:16;216.07;;;200.20;;
22768;SDS011;13001;51.968;5.918;2022-12-13T09:41:49;226.90;;;210.97;;
22768;SDS011;13001;51.968;5.918;2022-12-13T09:44:21;212.83;;;197.40;;
22768;SDS011;13001;51.968;5.918;2022-12-13T09:46:53;219.60;;;204.27;;
22768;SDS011;13001;51.968;5.918;2022-12-13T09:49:31;184.30;;;171.03;;
22768;SDS011;13001;51.968;5.918;2022-12-13T09:52:03;185.83;;;172.67;;
22768;SDS011;13001;51.968;5.918;2022-12-13T09:54:32;190.87;;;177.80;;
22768;SDS011;13001;51.968;5.918;2022-12-13T09:57:00;180.97;;;168.53;;
22768;SDS011;13001;51.968;5.918;2022-12-13T10:06:53;293.70;;;273.90;;
22768;SDS011;13001;51.968;5.918;2022-12-13T10:09:21;691.02;;;642.67;;
22768;SDS011;13001;51.968;5.918;2022-12-13T10:11:50;510.13;;;476.50;;
22768;SDS011;13001;51.968;5.918;2022-12-13T10:15:05;422.07;;;394.37;;
22768;SDS011;13001;51.968;5.918;2022-12-13T10:16:58;344.98;;;321.90;;
22768;SDS011;13001;51.968;5.918;2022-12-13T10:19:28;363.45;;;339.38;;
22768;SDS011;13001;51.968;5.918;2022-12-13T10:22:02;360.13;;;335.00;;
22768;SDS011;13001;51.968;5.918;2022-12-13T10:27:40;392.55;;;364.50;;
22768;SDS011;13001;51.968;5.918;2022-12-13T10:30:11;325.30;;;303.07;;
22768;SDS011;13001;51.968;5.918;2022-12-13T10:32:57;636.20;;;587.77;;
22768;SDS011;13001;51.968;5.918;2022-12-13T10:35:37;636.00;;;588.00;;
22768;SDS011;13001;51.968;5.918;2022-12-13T10:40:43;843.93;;;773.03;;
22768;SDS011;13001;51.968;5.918;2022-12-13T10:43:19;892.60;;;814.83;;
22768;SDS011;13001;51.968;5.918;2022-12-13T10:48:29;924.10;;;839.10;;
22768;SDS011;13001;51.968;5.918;2022-12-13T10:51:12;894.53;;;814.00;;
22768;SDS011;13001;51.968;5.918;2022-12-13T10:53:46;888.27;;;809.30;;
22768;SDS011;13001;51.968;5.918;2022-12-13T10:56:16;861.03;;;785.83;;
22768;SDS011;13001;51.968;5.918;2022-12-13T10:58:45;824.93;;;754.63;;
22768;SDS011;13001;51.968;5.918;2022-12-13T11:03:55;741.03;;;682.00;;
22768;SDS011;13001;51.968;5.918;2022-12-13T11:06:45;605.87;;;557.80;;
22768;SDS011;13001;51.968;5.918;2022-12-13T11:09:22;547.10;;;503.23;;
22768;SDS011;13001;51.968;5.918;2022-12-13T11:11:43;552.97;;;509.67;;
22768;SDS011;13001;51.968;5.918;2022-12-13T11:14:20;608.00;;;559.70;;
22768;SDS011;13001;51.968;5.918;2022-12-13T11:16:48;606.73;;;559.40;;
22768;SDS011;13001;51.968;5.918;2022-12-13T11:19:28;586.90;;;541.10;;
22768;SDS011;13001;51.968;5.918;2022-12-13T11:21:52;489.60;;;452.80;;
22768;SDS011;13001;51.968;5.918;2022-12-13T11:27:19;535.20;;;494.43;;
22768;SDS011;13001;51.968;5.918;2022-12-13T11:32:36;481.40;;;444.93;;
22768;SDS011;13001;51.968;5.918;2022-12-13T11:35:10;498.17;;;460.73;;
22768;SDS011;13001;51.968;5.918;2022-12-13T11:40:23;744.97;;;682.43;;
22768;SDS011;13001;51.968;5.918;2022-12-13T11:43:07;648.97;;;597.90;;
22768;SDS011;13001;51.968;5.918;2022-12-13T11:45:35;527.97;;;487.80;;
22768;SDS011;13001;51.968;5.918;2022-12-13T11:50:40;546.03;;;504.13;;
22768;SDS011;13001;51.968;5.918;2022-12-13T11:53:20;576.40;;;530.50;;
22768;SDS011;13001;51.968;5.918;2022-12-13T11:58:36;668.73;;;615.87;;
22768;SDS011;13001;51.968;5.918;2022-12-13T12:01:15;579.53;;;534.90;;
22768;SDS011;13001;51.968;5.918;2022-12-13T12:03:53;559.47;;;515.70;;
22768;SDS011;13001;51.968;5.918;2022-12-13T12:06:22;664.83;;;610.70;;
22768;SDS011;13001;51.968;5.918;2022-12-13T12:09:02;757.90;;;694.00;;
22768;SDS011;13001;51.968;5.918;2022-12-13T12:11:33;749.27;;;686.67;;
22768;SDS011;13001;51.968;5.918;2022-12-13T12:14:20;615.17;;;566.57;;
22768;SDS011;13001;51.968;5.918;2022-12-13T12:16:53;641.87;;;590.53;;
22768;SDS011;13001;51.968;5.918;2022-12-13T12:19:23;626.23;;;575.47;;
22768;SDS011;13001;51.968;5.918;2022-12-13T12:27:37;633.97;;;582.30;;
22768;SDS011;13001;51.968;5.918;2022-12-13T12:41:21;605.80;;;555.63;;
22768;SDS011;13001;51.968;5.918;2022-12-13T12:43:53;671.30;;;617.47;;
22768;SDS011;13001;51.968;5.918;2022-12-13T12:46:45;672.77;;;619.53;;
22768;SDS011;13001;51.968;5.918;2022-12-13T12:49:44;662.47;;;608.57;;
22768;SDS011;13001;51.968;5.918;2022-12-13T12:52:20;671.77;;;617.77;;
22768;SDS011;13001;51.968;5.918;2022-12-13T13:00:23;657.27;;;605.87;;
22768;SDS011;13001;51.968;5.918;2022-12-13T13:02:52;665.80;;;614.20;;
22768;SDS011;13001;51.968;5.918;2022-12-13T13:05:32;674.83;;;622.77;;
22768;SDS011;13001;51.968;5.918;2022-12-13T13:08:21;620.33;;;573.00;;
22768;SDS011;13001;51.968;5.918;2022-12-13T13:10:49;619.10;;;571.87;;
22768;SDS011;13001;51.968;5.918;2022-12-13T13:13:31;662.67;;;611.30;;
22768;SDS011;13001;51.968;5.918;2022-12-13T13:16:00;621.10;;;573.97;;
22768;SDS011;13001;51.968;5.918;2022-12-13T13:18:48;628.93;;;581.90;;
22768;SDS011;13001;51.968;5.918;2022-12-13T13:26:41;640.83;;;590.87;;
22768;SDS011;13001;51.968;5.918;2022-12-13T13:29:42;667.87;;;614.80;;
22768;SDS011;13001;51.968;5.918;2022-12-13T13:31:57;673.87;;;621.33;;
22768;SDS011;13001;51.968;5.918;2022-12-13T13:34:44;637.10;;;587.67;;
22768;SDS011;13001;51.968;5.918;2022-12-13T13:45:24;591.90;;;547.40;;
22768;SDS011;13001;51.968;5.918;2022-12-13T13:48:04;602.10;;;557.23;;
22768;SDS011;13001;51.968;5.918;2022-12-13T13:50:54;579.90;;;536.67;;
22768;SDS011;13001;51.968;5.918;2022-12-13T13:53:33;617.20;;;571.13;;
22768;SDS011;13001;51.968;5.918;2022-12-13T13:56:28;614.67;;;568.67;;
22768;SDS011;13001;51.968;5.918;2022-12-13T13:59:16;649.27;;;601.00;;
22768;SDS011;13001;51.968;5.918;2022-12-13T14:16:03;774.70;;;711.97;;
22768;SDS011;13001;51.968;5.918;2022-12-13T14:28:07;712.97;;;657.97;;
22768;SDS011;13001;51.968;5.918;2022-12-13T14:30:11;732.70;;;675.60;;
22768;SDS011;13001;51.968;5.918;2022-12-13T14:32:44;742.33;;;683.80;;
22768;SDS011;13001;51.968;5.918;2022-12-13T14:35:21;691.97;;;640.27;;
22768;SDS011;13001;51.968;5.918;2022-12-13T14:37:55;710.80;;;655.90;;
22768;SDS011;13001;51.968;5.918;2022-12-13T14:40:25;769.50;;;708.30;;
22768;SDS011;13001;51.968;5.918;2022-12-13T14:43:01;690.13;;;637.60;;
22768;SDS011;13001;51.968;5.918;2022-12-13T14:45:33;692.53;;;639.97;;
22768;SDS011;13001;51.968;5.918;2022-12-13T14:48:03;773.27;;;710.57;;
22768;SDS011;13001;51.968;5.918;2022-12-13T14:50:39;852.43;;;781.03;;
22768;SDS011;13001;51.968;5.918;2022-12-13T14:53:54;745.23;;;686.50;;
22768;SDS011;13001;51.968;5.918;2022-12-13T14:56:01;799.00;;;734.23;;
22768;SDS011;13001;51.968;5.918;2022-12-13T14:58:31;780.73;;;717.07;;
22768;SDS011;13001;51.968;5.918;2022-12-13T15:01:00;843.60;;;774.10;;
22768;SDS011;13001;51.968;5.918;2022-12-13T15:03:29;852.80;;;781.13;;
22768;SDS011;13001;51.968;5.918;2022-12-13T15:05:58;881.53;;;805.43;;
22768;SDS011;13001;51.968;5.918;2022-12-13T15:08:28;880.57;;;804.80;;
22768;SDS011;13001;51.968;5.918;2022-12-13T15:10:59;854.17;;;782.77;;
22768;SDS011;13001;51.968;5.918;2022-12-13T15:13:37;786.73;;;724.63;;
22768;SDS011;13001;51.968;5.918;2022-12-13T15:16:08;828.30;;;761.13;;
22768;SDS011;13001;51.968;5.918;2022-12-13T15:18:44;871.43;;;797.97;;
22768;SDS011;13001;51.968;5.918;2022-12-13T15:21:19;811.23;;;745.53;;
22768;SDS011;13001;51.968;5.918;2022-12-13T15:23:48;832.70;;;764.07;;
22768;SDS011;13001;51.968;5.918;2022-12-13T15:26:20;816.57;;;750.43;;
22768;SDS011;13001;51.968;5.918;2022-12-13T15:28:49;791.10;;;728.60;;
22768;SDS011;13001;51.968;5.918;2022-12-13T15:31:20;765.47;;;705.57;;
22768;SDS011;13001;51.968;5.918;2022-12-13T15:33:49;729.73;;;672.50;;
22768;SDS011;13001;51.968;5.918;2022-12-13T15:36:18;751.53;;;692.53;;
22768;SDS011;13001;51.968;5.918;2022-12-13T15:41:31;769.47;;;708.97;;
22768;SDS011;13001;51.968;5.918;2022-12-13T15:44:02;788.83;;;725.10;;
22768;SDS011;13001;51.968;5.918;2022-12-13T15:46:35;792.57;;;729.17;;
22768;SDS011;13001;51.968;5.918;2022-12-13T15:49:04;744.10;;;686.13;;
22768;SDS011;13001;51.968;5.918;2022-12-13T15:51:34;729.90;;;673.13;;
22768;SDS011;13001;51.968;5.918;2022-12-13T15:56:56;793.03;;;729.73;;
22768;SDS011;13001;51.968;5.918;2022-12-13T15:59:33;793.00;;;728.63;;
22768;SDS011;13001;51.968;5.918;2022-12-13T16:01:59;767.07;;;706.30;;
22768;SDS011;13001;51.968;5.918;2022-12-13T16:04:29;776.13;;;714.20;;
22768;SDS011;13001;51.968;5.918;2022-12-13T16:06:58;812.27;;;746.57;;
22768;SDS011;13001;51.968;5.918;2022-12-13T16:09:27;809.70;;;743.07;;
22768;SDS011;13001;51.968;5.918;2022-12-13T16:12:00;772.33;;;710.30;;
22768;SDS011;13001;51.968;5.918;2022-12-13T16:17:12;845.03;;;773.73;;
22768;SDS011;13001;51.968;5.918;2022-12-13T16:19:52;813.97;;;748.03;;
22768;SDS011;13001;51.968;5.918;2022-12-13T16:22:23;787.63;;;725.17;;